Terminal Aerodrome Forecast
Issued by NWS Memphis, TN

Home | Current Version | Previous Version | Text Only | Print | Product List | Glossary On
Versions: 1 2 3 4 5 6 7 8 9 10 11 12 13 14
000
FTUS44 KMEG 240500
TAFJBR
TAF
KJBR 240520Z 2406/2506 04007KT P6SM SCT015 BKN040
      TEMPO 2410/2413 BKN015
     FM241400 04010KT P6SM FEW040
     FM250100 05005KT P6SM SKC=

USA.gov is the U.S. government's official web portal to all federal, state and local government web resources and services.